KLAN

Capital Region International Airport

Lansing, Michigan, USA
METAR KLAN 151653Z 03008KT 7SM CLR 01/M01 A3016 RMK AO2 SLP224 T00061006
Observed Flight Rules
Dec-15 @ 16:53 UTC (8 minutes ago) Visual Flight Rules
Wind Visibility Clouds
30° at 8 knots 7 miles
  • Clear skies
Temperatures Readings
Current 1°C / 34°F
Dewpoint -1°C / 30°F
Humidity 87%
Altimeter 30.16" Hg
Pressure 1022.4 hPa
Elevation 264
METAR KLAN 151653Z 03008KT 7SM CLR 01/M01 A3016 RMK AO2 SLP224 T00061006
Observed Flight Rules
Dec-15 @ 16:53 UTC
(8 minutes ago)
VFR
Wind Visibility
30° at 8 knots 7 miles
Clouds
  • Clear skies
Temperature Dewpoint
1°C / 34°F -1°C / 30°F
Humidity Altimeter Pressure
87% 30.16" Hg 1022.4 hPa